createdAt,value
2023-05-01T00:01:50.592Z,101253.38
2023-05-01T00:04:16.990Z,101251.41
2023-05-01T00:06:43.484Z,101307.91
2023-05-01T00:09:09.758Z,101325.19
2023-05-01T00:11:35.989Z,101377.06
2023-05-01T00:14:02.189Z,101367.41
2023-05-01T00:16:28.464Z,101341.72
2023-05-01T00:18:54.756Z,101325.59
2023-05-01T00:21:20.984Z,101289.56
2023-05-01T00:23:47.178Z,101259.94
2023-05-01T00:26:13.378Z,101228.19
2023-05-01T00:28:39.589Z,101180.28
2023-05-01T00:31:05.809Z,101154.81
2023-05-01T00:33:32.008Z,101135.88
2023-05-01T00:35:59.187Z,101165.50
2023-05-01T00:38:25.428Z,101169.22
2023-05-01T00:40:51.650Z,101142.81
2023-05-01T00:43:17.872Z,101158.03
2023-05-01T00:45:44.510Z,101224.34
2023-05-01T00:48:11.012Z,101211.22
2023-05-01T00:50:37.409Z,101206.53
2023-05-01T00:53:03.611Z,101268.34
2023-05-01T00:55:29.979Z,101285.63
2023-05-01T00:57:56.196Z,101318.06
2023-05-01T01:00:22.417Z,101301.31
2023-05-01T01:02:48.897Z,101340.69
2023-05-01T01:05:15.139Z,101327.84
2023-05-01T01:07:47.685Z,101295.22
2023-05-01T01:10:16.300Z,101245.50
2023-05-01T01:12:46.374Z,101230.38
2023-05-01T01:15:29.212Z,101268.22
2023-05-01T01:18:07.739Z,101276.97
2023-05-01T01:20:37.746Z,101290.34
2023-05-01T01:23:11.308Z,101347.69
2023-05-01T01:25:37.459Z,101371.94
2023-05-01T01:28:10.766Z,101355.09
2023-05-01T01:30:45.625Z,101306.19
2023-05-01T01:33:24.040Z,101238.72
2023-05-01T01:35:56.603Z,101222.88
2023-05-01T01:38:24.821Z,101219.38
2023-05-01T01:40:50.972Z,101210.28
2023-05-01T01:43:17.182Z,101182.94
2023-05-01T01:45:43.596Z,101196.06
2023-05-01T01:48:12.975Z,101193.34
2023-05-01T01:50:39.217Z,101192.16
2023-05-01T01:53:05.569Z,101230.38
2023-05-01T01:55:31.757Z,101291.97
2023-05-01T01:57:57.960Z,101283.66
2023-05-01T02:00:24.167Z,101264.06
2023-05-01T02:02:50.420Z,101252.56
2023-05-01T02:05:16.924Z,101231.66
2023-05-01T02:07:43.336Z,101195.66
2023-05-01T02:10:09.632Z,101180.75
2023-05-01T02:12:35.853Z,101191.50
2023-05-01T02:15:02.083Z,101175.13
2023-05-01T02:17:28.656Z,101151.50
2023-05-01T02:19:55.593Z,101135.06
2023-05-01T02:22:22.267Z,101122.59
2023-05-01T02:24:48.611Z,101101.53
2023-05-01T02:27:22.909Z,101107.78
2023-05-01T02:29:49.155Z,101105.72
2023-05-01T02:32:15.362Z,101131.31
2023-05-01T02:34:41.573Z,101143.06
2023-05-01T02:37:07.845Z,101140.13
2023-05-01T02:39:34.394Z,101151.88
2023-05-01T02:42:00.608Z,101161.06
2023-05-01T02:44:26.808Z,101174.81
2023-05-01T02:46:53.043Z,101196.22
2023-05-01T02:49:19.317Z,101154.69
2023-05-01T02:51:45.701Z,101123.19
2023-05-01T02:54:12.373Z,101105.25
2023-05-01T02:56:38.588Z,101093.53
2023-05-01T02:59:04.792Z,101064.47
2023-05-01T03:01:31.050Z,101074.44
2023-05-01T03:03:57.339Z,101063.50
2023-05-01T03:06:23.622Z,101076.63
2023-05-01T03:08:51.037Z,101077.28
2023-05-01T03:11:17.268Z,101060.56
2023-05-01T03:13:43.527Z,101061.56
2023-05-01T03:16:09.799Z,101064.34
2023-05-01T03:18:36.040Z,101088.03
2023-05-01T03:21:02.259Z,101098.72
2023-05-01T03:23:28.469Z,101098.28
2023-05-01T03:25:54.696Z,101099.47
2023-05-01T03:28:20.925Z,101109.59
2023-05-01T03:30:47.157Z,101123.56
2023-05-01T03:33:13.444Z,101118.00
2023-05-01T03:35:39.701Z,101122.13
2023-05-01T03:38:05.958Z,101127.13
2023-05-01T03:40:32.276Z,101141.66
2023-05-01T03:42:58.482Z,101166.28
2023-05-01T03:45:24.692Z,101176.56
2023-05-01T03:47:51.038Z,101173.97
2023-05-01T03:50:17.314Z,101179.53
2023-05-01T03:52:43.519Z,101194.09
2023-05-01T03:55:09.779Z,101200.31
2023-05-01T03:57:35.996Z,101200.38
2023-05-01T04:00:02.229Z,101205.00
2023-05-01T04:02:28.611Z,101204.69
2023-05-01T04:04:54.895Z,101197.13
2023-05-01T04:07:21.144Z,101183.81
2023-05-01T04:09:47.344Z,101163.97
2023-05-01T04:12:13.555Z,101138.88
2023-05-01T04:14:39.748Z,101134.50
2023-05-01T04:17:05.974Z,101132.75
2023-05-01T04:19:32.189Z,101132.38
2023-05-01T04:21:58.402Z,101119.88
2023-05-01T04:24:24.607Z,101090.56
2023-05-01T04:26:50.825Z,101074.03
2023-05-01T04:29:17.022Z,101076.88
2023-05-01T04:31:43.414Z,101059.75
2023-05-01T04:34:09.684Z,101061.19
2023-05-01T04:36:35.895Z,101054.41
2023-05-01T04:39:02.109Z,101028.50
2023-05-01T04:41:28.321Z,101009.56
2023-05-01T04:43:54.545Z,101000.16
2023-05-01T04:46:20.807Z,100982.59
2023-05-01T04:48:47.034Z,100955.19
2023-05-01T04:51:13.235Z,100919.13
2023-05-01T04:53:39.440Z,100867.66
2023-05-01T04:56:05.697Z,100836.44
2023-05-01T04:58:31.887Z,100758.69
2023-05-01T05:00:58.097Z,100619.88
2023-05-01T05:03:24.412Z,100537.50
2023-05-01T05:05:50.675Z,100481.28
2023-05-01T05:08:16.907Z,100463.47
2023-05-01T05:10:43.131Z,100381.56
2023-05-01T05:13:09.326Z,100335.50
2023-05-01T05:15:35.551Z,100314.97
2023-05-01T05:18:01.789Z,100259.06
2023-05-01T05:20:28.005Z,100211.50
2023-05-01T05:22:54.313Z,100266.91
2023-05-01T05:25:20.543Z,100200.19
2023-05-01T05:27:46.747Z,100171.38
2023-05-01T05:30:12.960Z,100033.44
2023-05-01T05:32:39.213Z,99867.84
2023-05-01T05:35:06.011Z,99610.13
2023-05-01T05:37:32.790Z,99418.25
2023-05-01T05:39:59.137Z,99374.19
2023-05-01T05:42:25.478Z,99383.19
2023-05-01T05:44:51.824Z,99497.28
2023-05-01T05:47:18.176Z,99474.75
2023-05-01T05:49:44.596Z,99446.81
2023-05-01T05:52:10.946Z,99386.81
2023-05-01T05:54:37.282Z,99472.63
2023-05-01T05:57:03.682Z,99400.25
2023-05-01T05:59:30.029Z,99343.91
2023-05-01T06:01:56.380Z,99239.88
2023-05-01T06:04:22.785Z,99062.88
2023-05-01T06:06:49.235Z,99156.84
2023-05-01T06:09:15.599Z,99044.81
2023-05-01T06:11:41.971Z,98965.06
2023-05-01T06:14:08.315Z,98864.69
2023-05-01T06:16:34.783Z,99054.53
2023-05-01T06:19:01.216Z,99021.66
2023-05-01T06:21:27.593Z,98900.38
2023-05-01T06:23:53.948Z,98868.16
2023-05-01T06:26:20.316Z,98922.66
2023-05-01T06:28:46.660Z,98912.84
2023-05-01T06:31:13.037Z,98984.75
2023-05-01T06:33:39.457Z,99008.13
2023-05-01T06:36:05.957Z,98994.34
2023-05-01T06:38:32.365Z,99221.34
2023-05-01T06:40:58.903Z,98922.81
2023-05-01T06:43:25.262Z,99120.00
2023-05-01T06:45:51.617Z,99079.16
2023-05-01T06:48:17.975Z,99093.63
2023-05-01T06:50:44.328Z,99045.56
2023-05-01T06:53:10.672Z,98809.66
2023-05-01T06:55:37.012Z,98954.81
2023-05-01T06:58:16.032Z,98718.28
2023-05-01T07:00:48.698Z,98720.50
2023-05-01T07:03:15.130Z,98943.25
2023-05-01T07:05:41.533Z,98779.66
2023-05-01T07:08:07.894Z,98773.75
2023-05-01T07:10:34.251Z,98636.88
2023-05-01T07:13:00.607Z,98728.41
2023-05-01T07:15:26.967Z,98895.81
2023-05-01T07:17:53.354Z,98795.09
2023-05-01T07:20:19.882Z,98946.13
2023-05-01T07:22:46.218Z,98925.94
2023-05-01T07:25:12.567Z,98986.72
2023-05-01T07:27:38.926Z,98744.06
2023-05-01T07:30:06.062Z,98658.91
2023-05-01T07:32:32.470Z,98858.69
2023-05-01T07:34:58.916Z,98726.97
2023-05-01T07:37:25.417Z,98808.78
2023-05-01T07:39:51.758Z,98899.50
2023-05-01T07:42:18.208Z,98815.06
2023-05-01T07:44:44.627Z,98780.34
2023-05-01T07:47:10.985Z,98778.00
2023-05-01T07:49:37.754Z,98842.44
2023-05-01T07:52:04.796Z,98866.78
2023-05-01T07:54:31.132Z,98791.81
2023-05-01T07:56:57.466Z,98712.81
2023-05-01T07:59:23.834Z,98666.25
2023-05-01T08:01:50.175Z,98580.72
2023-05-01T08:04:16.554Z,98833.69
2023-05-01T08:06:43.048Z,98715.88
2023-05-01T08:09:09.304Z,98470.78
2023-05-01T08:11:35.502Z,98307.47
2023-05-01T08:14:01.711Z,98325.84
2023-05-01T08:16:27.976Z,98393.38
2023-05-01T08:18:54.222Z,98380.06
2023-05-01T08:21:20.438Z,98396.97
2023-05-01T08:23:46.662Z,98442.31
2023-05-01T08:26:12.858Z,98355.38
2023-05-01T08:28:39.081Z,98035.84
2023-05-01T08:31:05.322Z,98232.16
2023-05-01T08:33:31.571Z,98311.09
2023-05-01T08:35:57.798Z,98386.13
2023-05-01T08:38:24.029Z,98013.25
2023-05-01T08:40:51.314Z,98161.06
2023-05-01T08:43:17.536Z,98206.66
2023-05-01T08:45:43.739Z,98284.22
2023-05-01T08:48:10.090Z,98212.75
2023-05-01T08:50:36.475Z,98103.28
2023-05-01T08:53:02.807Z,98319.88
2023-05-01T08:55:29.018Z,98491.00
2023-05-01T08:57:55.269Z,98312.84
2023-05-01T09:00:21.636Z,98046.75
2023-05-01T09:02:48.200Z,98408.94
2023-05-01T09:05:15.509Z,98120.22
2023-05-01T09:07:42.261Z,97771.06
2023-05-01T09:10:08.508Z,97932.88
2023-05-01T09:12:34.702Z,97967.06
2023-05-01T09:15:02.124Z,97869.06
2023-05-01T09:17:28.385Z,98145.34
2023-05-01T09:19:54.790Z,97959.94
2023-05-01T09:22:21.165Z,98050.19
2023-05-01T09:24:47.383Z,98097.50
2023-05-01T09:27:13.597Z,98109.63
2023-05-01T09:29:46.538Z,97888.34
2023-05-01T09:32:15.789Z,98197.88
2023-05-01T09:34:42.454Z,98189.38
2023-05-01T09:37:08.852Z,97947.88
2023-05-01T09:39:35.063Z,97771.72
2023-05-01T09:42:01.283Z,97744.03
2023-05-01T09:44:27.486Z,97753.84
2023-05-01T09:46:53.699Z,97721.38
2023-05-01T09:49:19.897Z,97578.56
2023-05-01T09:51:46.185Z,98042.19
2023-05-01T09:54:18.970Z,97851.88
2023-05-01T09:56:48.519Z,97646.94
2023-05-01T09:59:15.541Z,97529.75
2023-05-01T10:01:42.486Z,97902.50
2023-05-01T10:04:15.923Z,98158.91
2023-05-01T10:06:42.621Z,98067.72
2023-05-01T10:09:11.477Z,97949.13
2023-05-01T10:11:47.191Z,98099.69
2023-05-01T10:14:13.427Z,97813.13
2023-05-01T10:16:39.685Z,97958.75
2023-05-01T10:19:05.937Z,97871.59
2023-05-01T10:21:32.295Z,97616.47
2023-05-01T10:23:58.505Z,97505.38
2023-05-01T10:26:24.785Z,97701.53
2023-05-01T10:28:51.064Z,97723.28
2023-05-01T10:31:17.283Z,97711.44
2023-05-01T10:33:43.922Z,97690.75
2023-05-01T10:36:11.370Z,98012.31
2023-05-01T10:38:37.592Z,97830.44
2023-05-01T10:41:03.846Z,97905.25
2023-05-01T10:43:30.300Z,97768.44
2023-05-01T10:46:14.809Z,97589.97
2023-05-01T10:48:41.040Z,97533.69
2023-05-01T10:51:10.504Z,97669.38
2023-05-01T10:53:37.002Z,97551.75
2023-05-01T10:56:03.370Z,97424.34
2023-05-01T10:58:47.993Z,97553.66
2023-05-01T11:01:32.731Z,97517.25
2023-05-01T11:03:59.865Z,97554.41
2023-05-01T11:06:26.285Z,97786.28
2023-05-01T11:08:52.677Z,97246.50
2023-05-01T11:11:21.622Z,97552.53
2023-05-01T11:13:59.909Z,97765.44
2023-05-01T11:16:42.465Z,97624.69
2023-05-01T11:19:11.764Z,97553.19
2023-05-01T11:21:38.457Z,97803.69
2023-05-01T11:24:05.007Z,97709.81
2023-05-01T11:26:32.487Z,97797.97
2023-05-01T11:28:59.262Z,97518.50
2023-05-01T11:31:25.670Z,97565.03
2023-05-01T11:33:52.300Z,97829.38
2023-05-01T11:36:18.719Z,97762.44
2023-05-01T11:38:54.631Z,97533.97
2023-05-01T11:41:20.848Z,97679.56
2023-05-01T11:43:59.289Z,97170.31
2023-05-01T11:46:25.893Z,97086.06
2023-05-01T11:48:52.228Z,97368.91
2023-05-01T11:51:18.438Z,97378.81
2023-05-01T11:53:58.271Z,97459.66
2023-05-01T11:56:27.024Z,97483.09
2023-05-01T11:58:57.381Z,97427.19
2023-05-01T12:01:33.187Z,97328.50
2023-05-01T12:03:59.509Z,97063.09
2023-05-01T12:06:35.063Z,97322.66
2023-05-01T12:09:01.281Z,97459.81
2023-05-01T12:11:27.470Z,97316.16
2023-05-01T12:13:53.707Z,97444.38
2023-05-01T12:16:19.945Z,97020.78
2023-05-01T12:18:46.177Z,96986.84
2023-05-01T12:21:15.566Z,97143.94
2023-05-01T12:23:41.779Z,96889.19
2023-05-01T12:26:20.640Z,97004.06
2023-05-01T12:28:56.348Z,97112.66
2023-05-01T12:31:22.697Z,96936.06
2023-05-01T12:33:58.637Z,97488.41
2023-05-01T12:36:26.556Z,97410.81
2023-05-01T12:38:59.456Z,97479.56
2023-05-01T12:41:37.860Z,97409.28
2023-05-01T12:44:22.472Z,97366.59
2023-05-01T12:47:02.112Z,97401.41
2023-05-01T12:49:28.519Z,97554.09
2023-05-01T12:51:55.379Z,97351.50
2023-05-01T12:54:26.872Z,97400.19
2023-05-01T12:56:53.094Z,97783.22
2023-05-01T12:59:26.772Z,97609.63
2023-05-01T13:02:11.868Z,97403.97
2023-05-01T13:04:38.291Z,97145.44
2023-05-01T13:07:11.664Z,97275.28
2023-05-01T13:09:37.937Z,97421.91
2023-05-01T13:12:04.591Z,96979.81
2023-05-01T13:14:37.171Z,97097.41
2023-05-01T13:17:03.368Z,97100.16
2023-05-01T13:19:29.733Z,96937.84
2023-05-01T13:21:56.297Z,96959.47
2023-05-01T13:24:22.526Z,97379.66
2023-05-01T13:26:48.829Z,97691.22
2023-05-01T13:29:15.365Z,97616.47
2023-05-01T13:31:44.981Z,97617.97
2023-05-01T13:34:11.235Z,97280.47
2023-05-01T13:36:37.447Z,97302.91
2023-05-01T13:39:04.080Z,96779.63
2023-05-01T13:41:30.293Z,97218.94
2023-05-01T13:43:56.710Z,97172.22
2023-05-01T13:46:23.922Z,97179.28
2023-05-01T13:48:50.588Z,96790.84
2023-05-01T13:51:23.466Z,97110.72
2023-05-01T13:53:49.691Z,96993.59
2023-05-01T13:56:15.891Z,96813.22
2023-05-01T13:58:42.136Z,96855.41
2023-05-01T14:01:15.237Z,97226.94
2023-05-01T14:03:41.681Z,97095.03
2023-05-01T14:06:12.125Z,97185.34
2023-05-01T14:08:38.385Z,97240.03
2023-05-01T14:11:05.436Z,97247.13
2023-05-01T14:13:31.662Z,97403.28
2023-05-01T14:15:57.863Z,97692.44
2023-05-01T14:18:24.111Z,97102.78
2023-05-01T14:20:50.363Z,97061.88
2023-05-01T14:23:16.582Z,97122.38
2023-05-01T14:25:44.006Z,97052.66
2023-05-01T14:28:10.211Z,97183.34
2023-05-01T14:30:36.832Z,96987.31
2023-05-01T14:33:03.536Z,96780.59
2023-05-01T14:35:29.897Z,97204.38
2023-05-01T14:37:56.129Z,97343.38
2023-05-01T14:40:25.802Z,97482.34
2023-05-01T14:42:52.689Z,97434.75
2023-05-01T14:45:18.957Z,97540.16
2023-05-01T14:47:48.599Z,97317.72
2023-05-01T14:50:18.472Z,97360.78
2023-05-01T14:52:44.665Z,97522.75
2023-05-01T14:55:22.482Z,97337.00
2023-05-01T14:57:48.686Z,97290.97
2023-05-01T15:00:15.147Z,97057.88
2023-05-01T15:02:41.504Z,97533.97
2023-05-01T15:05:07.879Z,97570.88
2023-05-01T15:07:34.093Z,97800.34
2023-05-01T15:10:00.482Z,97765.25
2023-05-01T15:12:28.916Z,97892.72
2023-05-01T15:14:55.146Z,98154.13
2023-05-01T15:17:21.420Z,97925.53
2023-05-01T15:19:47.659Z,97915.28
2023-05-01T15:22:13.881Z,98007.63
2023-05-01T15:24:40.133Z,97840.66
2023-05-01T15:27:06.371Z,97874.66
2023-05-01T15:29:32.585Z,98057.75
2023-05-01T15:32:08.533Z,98029.81
2023-05-01T15:34:37.957Z,98044.91
2023-05-01T15:37:04.187Z,97995.56
2023-05-01T15:39:30.990Z,97896.22
2023-05-01T15:41:57.196Z,97869.84
2023-05-01T15:44:23.410Z,98256.97
2023-05-01T15:46:49.716Z,98237.81
2023-05-01T15:49:15.989Z,98243.81
2023-05-01T15:51:42.186Z,98334.50
2023-05-01T15:54:08.402Z,98302.63
2023-05-01T15:56:35.190Z,98438.38
2023-05-01T15:59:01.871Z,98797.09
2023-05-01T16:01:28.090Z,98705.34
2023-05-01T16:03:54.624Z,98827.25
2023-05-01T16:06:21.209Z,98684.56
2023-05-01T16:08:47.469Z,98710.06
2023-05-01T16:11:13.678Z,98765.97
2023-05-01T16:13:40.119Z,98703.22
2023-05-01T16:16:09.383Z,98558.19
2023-05-01T16:18:35.614Z,98554.00
2023-05-01T16:21:01.823Z,98691.19
2023-05-01T16:23:28.041Z,98877.09
2023-05-01T16:25:54.250Z,99032.63
2023-05-01T16:28:20.489Z,98984.78
2023-05-01T16:30:47.416Z,99014.84
2023-05-01T16:33:18.807Z,98970.06
2023-05-01T16:35:46.440Z,99127.78
2023-05-01T16:38:12.658Z,99138.13
2023-05-01T16:40:38.877Z,98964.59
2023-05-01T16:43:05.105Z,98965.47
2023-05-01T16:45:31.415Z,98914.81
2023-05-01T16:47:57.938Z,98868.19
2023-05-01T16:50:24.243Z,98887.81
2023-05-01T16:52:50.775Z,98867.50
2023-05-01T16:55:16.991Z,98978.38
2023-05-01T16:57:44.525Z,98966.28
2023-05-01T17:00:10.984Z,99160.19
2023-05-01T17:02:37.977Z,99153.34
2023-05-01T17:05:04.340Z,99127.63
2023-05-01T17:07:30.625Z,99111.69
2023-05-01T17:09:56.972Z,99120.88
2023-05-01T17:12:23.285Z,99163.31
2023-05-01T17:14:49.517Z,99303.00
2023-05-01T17:17:15.724Z,99396.13
2023-05-01T17:19:41.961Z,99413.16
2023-05-01T17:22:08.177Z,99596.41
2023-05-01T17:24:37.385Z,99805.03
2023-05-01T17:27:03.604Z,99996.94
2023-05-01T17:29:29.862Z,100083.72
2023-05-01T17:31:56.140Z,100130.16
2023-05-01T17:34:22.400Z,100106.44
2023-05-01T17:36:48.654Z,100148.44
2023-05-01T17:39:14.902Z,100084.31
2023-05-01T17:41:41.124Z,100026.69
2023-05-01T17:44:07.343Z,100165.78
2023-05-01T17:46:33.639Z,100367.38
2023-05-01T17:48:59.898Z,100656.22
2023-05-01T17:51:26.122Z,100445.72
2023-05-01T17:53:52.701Z,100287.56
2023-05-01T17:56:19.286Z,100338.81
2023-05-01T17:58:45.762Z,100226.00
2023-05-01T18:01:12.057Z,100220.88
2023-05-01T18:03:38.446Z,100188.81
2023-05-01T18:06:04.762Z,100221.03
2023-05-01T18:08:31.029Z,100228.88
2023-05-01T18:10:57.292Z,100320.34
2023-05-01T18:13:23.555Z,100544.91
2023-05-01T18:15:51.858Z,100635.09
2023-05-01T18:18:18.377Z,100584.16
2023-05-01T18:20:44.622Z,100464.06
2023-05-01T18:23:10.827Z,100490.66
2023-05-01T18:25:37.066Z,100435.81
2023-05-01T18:28:03.282Z,100416.38
2023-05-01T18:30:29.519Z,100462.69
2023-05-01T18:32:55.793Z,100462.13
2023-05-01T18:35:22.034Z,100471.41
2023-05-01T18:37:48.273Z,100483.25
2023-05-01T18:40:14.510Z,100520.00
2023-05-01T18:42:41.019Z,100565.47
2023-05-01T18:45:07.467Z,100733.31
2023-05-01T18:47:33.732Z,100690.53
2023-05-01T18:50:00.188Z,100736.22
2023-05-01T18:52:26.528Z,100893.69
2023-05-01T18:54:52.753Z,100852.44
2023-05-01T18:57:18.990Z,100813.34
2023-05-01T18:59:45.299Z,100840.50
2023-05-01T19:02:11.575Z,100937.63
2023-05-01T19:04:49.197Z,100856.63
2023-05-01T19:07:22.678Z,100655.13
2023-05-01T19:09:48.905Z,100500.16
2023-05-01T19:12:15.110Z,100354.09
2023-05-01T19:14:41.329Z,100239.53
2023-05-01T19:17:07.534Z,100200.72
2023-05-01T19:19:33.736Z,100147.25
2023-05-01T19:21:59.925Z,100163.69
2023-05-01T19:24:26.135Z,100209.00
2023-05-01T19:26:52.348Z,100162.41
2023-05-01T19:29:18.661Z,100205.06
2023-05-01T19:31:44.896Z,100241.78
2023-05-01T19:34:11.537Z,100198.53
2023-05-01T19:36:37.750Z,100375.38
2023-05-01T19:39:03.978Z,100417.84
2023-05-01T19:41:30.182Z,100399.28
2023-05-01T19:43:56.387Z,100402.41
2023-05-01T19:46:22.732Z,100472.00
2023-05-01T19:48:48.998Z,100447.69
2023-05-01T19:51:15.215Z,100397.94
2023-05-01T19:53:41.432Z,100386.13
2023-05-01T19:56:07.649Z,100517.50
2023-05-01T19:58:33.874Z,100516.25
2023-05-01T20:01:00.197Z,100466.00
2023-05-01T20:03:26.663Z,100442.97
2023-05-01T20:05:53.030Z,100564.03
2023-05-01T20:08:19.268Z,100574.53
2023-05-01T20:10:45.475Z,100597.25
2023-05-01T20:13:11.678Z,100587.00
2023-05-01T20:15:38.906Z,100560.41
2023-05-01T20:18:05.290Z,100492.13
2023-05-01T20:20:31.545Z,100435.84
2023-05-01T20:23:13.401Z,100443.44
2023-05-01T20:25:39.670Z,100404.47
2023-05-01T20:28:06.111Z,100370.19
2023-05-01T20:30:32.331Z,100378.00
2023-05-01T20:32:58.605Z,100400.50
2023-05-01T20:35:24.869Z,100375.66
2023-05-01T20:37:51.068Z,100337.66
2023-05-01T20:40:19.088Z,100371.41
2023-05-01T20:42:45.294Z,100383.16
2023-05-01T20:45:11.522Z,100409.44
2023-05-01T20:47:37.780Z,100477.63
2023-05-01T20:50:04.112Z,100512.56
2023-05-01T20:52:30.321Z,100568.22
2023-05-01T20:54:56.548Z,100545.09
2023-05-01T20:57:22.764Z,100608.41
2023-05-01T20:59:49.175Z,100605.53
2023-05-01T21:02:15.733Z,100590.28
2023-05-01T21:04:42.225Z,100534.72
2023-05-01T21:07:08.760Z,100455.94
2023-05-01T21:09:35.056Z,100463.75
2023-05-01T21:12:03.250Z,100584.59
2023-05-01T21:14:29.466Z,100670.53
2023-05-01T21:16:55.691Z,100650.84
2023-05-01T21:19:21.910Z,100623.53
2023-05-01T21:21:48.114Z,100595.78
2023-05-01T21:24:16.465Z,100591.53
2023-05-01T21:26:42.671Z,100603.81
2023-05-01T21:29:09.240Z,100591.59
2023-05-01T21:31:35.507Z,100577.44
2023-05-01T21:34:01.735Z,100592.50
2023-05-01T21:36:27.945Z,100594.41
2023-05-01T21:38:54.323Z,100598.84
2023-05-01T21:41:20.526Z,100607.03
2023-05-01T21:43:46.724Z,100623.50
2023-05-01T21:46:14.363Z,100590.66
2023-05-01T21:48:40.558Z,100568.91
2023-05-01T21:51:06.785Z,100584.72
2023-05-01T21:53:32.985Z,100612.63
2023-05-01T21:56:00.239Z,100643.63
2023-05-01T21:58:27.404Z,100643.00
2023-05-01T22:00:53.661Z,100658.69
2023-05-01T22:03:20.111Z,100659.00
2023-05-01T22:05:46.409Z,100671.75
2023-05-01T22:08:12.624Z,100673.75
2023-05-01T22:10:38.849Z,100690.72
2023-05-01T22:13:05.061Z,100685.41
2023-05-01T22:15:31.280Z,100712.44
2023-05-01T22:17:57.583Z,100738.94
2023-05-01T22:20:23.816Z,100742.34
2023-05-01T22:22:50.087Z,100734.03
2023-05-01T22:25:16.303Z,100723.66
2023-05-01T22:27:42.546Z,100690.78
2023-05-01T22:30:08.903Z,100658.41
2023-05-01T22:32:35.150Z,100641.91
2023-05-01T22:35:01.416Z,100615.50
2023-05-01T22:37:27.643Z,100676.50
2023-05-01T22:39:53.901Z,100661.47
2023-05-01T22:42:20.174Z,100663.63
2023-05-01T22:44:46.391Z,100661.09
2023-05-01T22:47:12.590Z,100665.59
2023-05-01T22:49:38.807Z,100631.19
2023-05-01T22:52:05.053Z,100667.19
2023-05-01T22:54:31.268Z,100718.66
2023-05-01T22:56:57.474Z,100747.16
2023-05-01T22:59:23.707Z,100720.72
2023-05-01T23:01:49.983Z,100701.09
2023-05-01T23:04:16.486Z,100673.75
2023-05-01T23:06:42.928Z,100659.84
2023-05-01T23:09:09.149Z,100642.13
2023-05-01T23:11:35.413Z,100625.69
2023-05-01T23:14:01.636Z,100632.41
2023-05-01T23:16:35.975Z,100640.84
2023-05-01T23:19:02.335Z,100643.22
2023-05-01T23:21:28.538Z,100621.38
2023-05-01T23:23:54.758Z,100603.22
2023-05-01T23:26:25.013Z,100622.75
2023-05-01T23:28:51.235Z,100609.25
2023-05-01T23:31:17.907Z,100602.47
2023-05-01T23:33:44.208Z,100617.59
2023-05-01T23:36:10.418Z,100598.88
2023-05-01T23:38:36.619Z,100623.34
2023-05-01T23:41:03.239Z,100645.03
2023-05-01T23:43:29.446Z,100649.41
2023-05-01T23:45:55.668Z,100671.22
2023-05-01T23:48:21.888Z,100724.09
2023-05-01T23:50:48.124Z,100739.47
2023-05-01T23:53:14.322Z,100695.88
2023-05-01T23:55:40.562Z,100672.41
2023-05-01T23:58:06.764Z,100636.53
